Time;durP1;ratioP1;P1;durP2;ratioP2;P2;SDS_P1;SDS_P2;PMS_P1;PMS_P2;Temp;Humidity;BMP_temperature;BMP_pressure;BME280_temperature;BME280_humidity;BME280_pressure;Samples;Min_cycle;Max_cycle;Signal;HPM_P1;HPM_P2
2022/11/27 00:00:33;;;;;;;9.60;6.97;;;;;;;;;;5012323;28;20239;-79
2022/11/27 00:03:00;;;;;;;11.83;7.33;;;;;;;;;;5012529;28;20730;-78
2022/11/27 00:05:27;;;;;;;16.13;7.70;;;;;;;;;;5011687;28;20261;-79
2022/11/27 00:07:54;;;;;;;9.03;6.93;;;;;;;;;;5012846;28;20203;-78
2022/11/27 00:10:21;;;;;;;17.30;7.43;;;;;;;;;;5012154;28;20239;-78
2022/11/27 00:12:48;;;;;;;14.10;7.70;;;;;;;;;;5008749;28;20235;-78
2022/11/27 00:15:15;;;;;;;12.57;7.13;;;;;;;;;;4992445;28;20353;-78
2022/11/27 00:17:44;;;;;;;10.50;6.83;;;;;;;;;;5007983;28;20227;-79
2022/11/27 00:20:11;;;;;;;11.50;7.07;;;;;;;;;;4999703;28;20204;-78
2022/11/27 00:22:38;;;;;;;12.50;7.27;;;;;;;;;;5007884;28;20232;-78
2022/11/27 00:25:06;;;;;;;14.23;7.37;;;;;;;;;;4999116;28;20211;-79
2022/11/27 00:27:33;;;;;;;13.23;7.20;;;;;;;;;;5011762;28;20218;-78
2022/11/27 00:30:00;;;;;;;13.60;7.60;;;;;;;;;;5000126;28;20208;-78
2022/11/27 00:32:27;;;;;;;12.13;7.40;;;;;;;;;;5003545;28;20226;-78
2022/11/27 00:34:56;;;;;;;16.23;8.00;;;;;;;;;;5010161;28;20225;-79
2022/11/27 00:37:23;;;;;;;16.40;7.60;;;;;;;;;;4996193;28;20245;-79
2022/11/27 00:39:50;;;;;;;11.33;7.27;;;;;;;;;;5007862;28;20299;-79
2022/11/27 00:42:17;;;;;;;10.20;7.13;;;;;;;;;;5009588;28;20251;-78
2022/11/27 00:44:44;;;;;;;10.43;6.57;;;;;;;;;;5011818;28;20210;-79
2022/11/27 00:47:11;;;;;;;8.37;6.83;;;;;;;;;;5010635;28;20234;-79
2022/11/27 00:49:38;;;;;;;10.80;6.60;;;;;;;;;;5005847;28;20214;-78
2022/11/27 00:52:07;;;;;;;13.73;7.10;;;;;;;;;;5006284;28;20234;-78
2022/11/27 00:54:34;;;;;;;11.27;7.27;;;;;;;;;;5002551;28;20758;-79
2022/11/27 00:57:01;;;;;;;16.03;7.07;;;;;;;;;;5007135;28;20231;-78
2022/11/27 00:59:28;;;;;;;10.10;7.20;;;;;;;;;;5007831;28;20227;-79
2022/11/27 01:01:55;;;;;;;11.07;7.30;;;;;;;;;;5011244;28;20715;-78
2022/11/27 01:04:22;;;;;;;15.47;7.90;;;;;;;;;;5007279;28;20671;-79
2022/11/27 01:06:49;;;;;;;8.53;6.90;;;;;;;;;;5011624;28;20235;-78
2022/11/27 01:09:18;;;;;;;12.87;6.80;;;;;;;;;;5011177;28;20202;-79
2022/11/27 01:11:45;;;;;;;10.53;7.17;;;;;;;;;;5010565;28;20231;-79
2022/11/27 01:14:15;;;;;;;12.73;7.07;;;;;;;;;;5011454;28;20230;-78
2022/11/27 01:16:42;;;;;;;10.90;6.80;;;;;;;;;;5011420;28;20870;-79
2022/11/27 01:19:10;;;;;;;9.50;7.33;;;;;;;;;;5009454;28;20719;-78
2022/11/27 01:21:37;;;;;;;8.87;7.17;;;;;;;;;;4999127;28;20867;-78
2022/11/27 01:24:05;;;;;;;10.30;7.27;;;;;;;;;;5011835;28;20228;-79
2022/11/27 01:26:33;;;;;;;12.87;6.73;;;;;;;;;;5011131;28;20233;-78
2022/11/27 01:29:00;;;;;;;9.97;7.07;;;;;;;;;;5010323;28;20203;-78
2022/11/27 01:31:28;;;;;;;13.47;7.57;;;;;;;;;;5010792;28;20727;-79
2022/11/27 01:33:57;;;;;;;13.07;7.23;;;;;;;;;;5011299;28;20235;-78
2022/11/27 01:36:24;;;;;;;9.97;6.33;;;;;;;;;;5011078;28;20227;-78
2022/11/27 01:38:51;;;;;;;10.10;6.77;;;;;;;;;;5002718;28;20234;-78
2022/11/27 01:41:19;;;;;;;8.00;7.20;;;;;;;;;;4998458;28;20230;-79
2022/11/27 01:43:48;;;;;;;9.20;6.57;;;;;;;;;;5002322;28;20233;-79
2022/11/27 01:46:23;;;;;;;9.93;6.70;;;;;;;;;;5006411;28;20232;-79
2022/11/27 01:48:51;;;;;;;11.77;7.23;;;;;;;;;;4999568;28;20259;-79
2022/11/27 01:51:19;;;;;;;10.50;6.37;;;;;;;;;;5010973;28;20231;-80
2022/11/27 01:53:46;;;;;;;9.17;6.57;;;;;;;;;;4993825;28;20226;-78
2022/11/27 01:56:13;;;;;;;9.47;6.73;;;;;;;;;;5009715;28;20241;-79
2022/11/27 01:58:41;;;;;;;8.10;6.93;;;;;;;;;;5011221;28;20226;-78
2022/11/27 02:01:09;;;;;;;10.33;7.67;;;;;;;;;;5014076;28;20238;-78
2022/11/27 02:03:36;;;;;;;10.27;6.47;;;;;;;;;;5006946;28;20231;-78
2022/11/27 02:06:03;;;;;;;10.23;6.13;;;;;;;;;;5014381;28;20239;-78
2022/11/27 02:08:31;;;;;;;10.17;6.83;;;;;;;;;;5015248;28;20214;-78
2022/11/27 02:11:00;;;;;;;10.80;7.03;;;;;;;;;;5014979;28;20249;-78
2022/11/27 02:13:30;;;;;;;10.30;6.10;;;;;;;;;;5015422;28;20244;-78
2022/11/27 02:16:02;;;;;;;12.33;6.90;;;;;;;;;;4998459;28;20230;-78
2022/11/27 02:18:33;;;;;;;12.47;7.60;;;;;;;;;;5015000;28;20220;-78
2022/11/27 02:21:05;;;;;;;11.93;7.30;;;;;;;;;;5014637;28;20240;-78
2022/11/27 02:23:50;;;;;;;9.33;7.63;;;;;;;;;;5014979;28;20224;-78
2022/11/27 02:26:32;;;;;;;10.27;7.10;;;;;;;;;;4994763;28;20246;-79
2022/11/27 02:29:04;;;;;;;10.13;6.77;;;;;;;;;;4986699;28;20206;-79
2022/11/27 02:31:35;;;;;;;10.00;6.43;;;;;;;;;;5009331;28;20613;-79
2022/11/27 02:34:05;;;;;;;9.80;7.00;;;;;;;;;;5014593;28;20231;-79
2022/11/27 02:36:32;;;;;;;7.27;6.47;;;;;;;;;;5014569;28;20600;-79
2022/11/27 02:39:02;;;;;;;9.67;7.30;;;;;;;;;;5014693;28;20258;-79
2022/11/27 02:41:31;;;;;;;14.43;7.03;;;;;;;;;;5014205;28;20870;-78
2022/11/27 02:43:59;;;;;;;8.73;6.47;;;;;;;;;;5014136;28;20224;-78
2022/11/27 02:46:28;;;;;;;11.97;7.27;;;;;;;;;;5009615;28;20235;-78
2022/11/27 02:48:57;;;;;;;15.27;6.90;;;;;;;;;;5014124;28;20207;-78
2022/11/27 02:51:27;;;;;;;12.83;8.03;;;;;;;;;;5013902;28;20236;-79
2022/11/27 02:53:55;;;;;;;8.60;6.80;;;;;;;;;;5009002;28;20227;-78
2022/11/27 02:56:24;;;;;;;10.57;7.10;;;;;;;;;;5013945;28;20240;-78
2022/11/27 02:58:52;;;;;;;11.77;7.33;;;;;;;;;;5013852;28;20238;-78
2022/11/27 03:01:20;;;;;;;9.80;7.43;;;;;;;;;;5003341;28;20228;-78
2022/11/27 03:03:53;;;;;;;11.30;7.40;;;;;;;;;;5000319;28;20224;-78
2022/11/27 03:06:22;;;;;;;10.33;7.43;;;;;;;;;;5012823;28;20757;-78
2022/11/27 03:08:53;;;;;;;10.37;7.27;;;;;;;;;;5010008;28;20208;-78
2022/11/27 03:11:20;;;;;;;12.37;7.60;;;;;;;;;;5010021;28;20239;-79
2022/11/27 03:13:49;;;;;;;8.90;6.63;;;;;;;;;;5001560;28;20251;-78
2022/11/27 03:16:21;;;;;;;9.00;6.20;;;;;;;;;;4994152;28;20229;-78
2022/11/27 03:18:53;;;;;;;12.57;6.57;;;;;;;;;;4998817;28;20242;-78
2022/11/27 03:21:27;;;;;;;11.47;7.63;;;;;;;;;;5012726;28;20223;-77
2022/11/27 03:23:54;;;;;;;10.33;7.43;;;;;;;;;;5013394;28;20231;-78
2022/11/27 03:26:21;;;;;;;9.83;6.93;;;;;;;;;;5013343;28;20230;-78
2022/11/27 03:28:50;;;;;;;8.83;7.57;;;;;;;;;;5013044;28;20200;-78
2022/11/27 03:31:17;;;;;;;12.80;7.53;;;;;;;;;;5012967;28;20242;-78
2022/11/27 03:33:44;;;;;;;12.17;7.67;;;;;;;;;;5013285;28;20901;-78
2022/11/27 03:36:14;;;;;;;14.83;6.50;;;;;;;;;;5012949;28;20231;-78
2022/11/27 03:38:42;;;;;;;31.00;6.53;;;;;;;;;;5008328;28;20568;-78
2022/11/27 03:41:11;;;;;;;13.37;6.60;;;;;;;;;;5006046;28;20310;-78
2022/11/27 03:43:42;;;;;;;28.60;7.03;;;;;;;;;;5013434;28;20227;-78
2022/11/27 03:46:11;;;;;;;33.63;6.90;;;;;;;;;;5013400;28;20289;-78
2022/11/27 03:48:43;;;;;;;7.43;6.10;;;;;;;;;;5013301;28;20203;-77
2022/11/27 03:51:15;;;;;;;9.03;5.90;;;;;;;;;;4998864;28;20235;-78
2022/11/27 03:53:51;;;;;;;8.53;6.60;;;;;;;;;;4993668;28;20223;-77
2022/11/27 03:56:23;;;;;;;10.33;6.17;;;;;;;;;;5005293;28;20242;-79
2022/11/27 03:58:53;;;;;;;10.20;6.80;;;;;;;;;;5013517;28;20216;-78
2022/11/27 04:01:21;;;;;;;42.63;8.60;;;;;;;;;;5012828;28;20234;-78
2022/11/27 04:03:48;;;;;;;21.90;7.30;;;;;;;;;;5009895;28;20228;-78
2022/11/27 04:06:15;;;;;;;20.33;7.47;;;;;;;;;;4992792;28;20234;-78
2022/11/27 04:08:43;;;;;;;36.43;7.40;;;;;;;;;;5000859;28;20586;-78
2022/11/27 04:11:11;;;;;;;14.23;7.03;;;;;;;;;;5001170;28;20240;-78
2022/11/27 04:13:38;;;;;;;22.00;7.67;;;;;;;;;;5010099;28;20231;-78
2022/11/27 04:16:06;;;;;;;24.43;7.50;;;;;;;;;;5010907;28;20269;-77
2022/11/27 04:18:33;;;;;;;10.10;6.90;;;;;;;;;;5011546;28;20207;-78
2022/11/27 04:21:00;;;;;;;9.57;7.07;;;;;;;;;;4993051;28;20226;-78
2022/11/27 04:23:27;;;;;;;12.80;7.07;;;;;;;;;;5006978;28;20228;-78
2022/11/27 04:25:54;;;;;;;10.60;7.07;;;;;;;;;;4998760;28;20707;-78
2022/11/27 04:28:22;;;;;;;8.63;6.90;;;;;;;;;;5001208;28;20545;-78
2022/11/27 04:30:51;;;;;;;10.80;7.33;;;;;;;;;;5009871;28;20227;-78
2022/11/27 04:33:19;;;;;;;8.33;7.30;;;;;;;;;;5012301;28;20602;-78
2022/11/27 04:35:46;;;;;;;7.40;6.50;;;;;;;;;;5007356;28;20837;-78
2022/11/27 04:38:13;;;;;;;10.27;6.97;;;;;;;;;;5011979;28;20212;-78
2022/11/27 04:40:40;;;;;;;10.57;7.47;;;;;;;;;;5011416;28;20246;-78
2022/11/27 04:43:07;;;;;;;9.23;7.03;;;;;;;;;;5009129;28;20236;-79
2022/11/27 04:45:35;;;;;;;11.77;6.83;;;;;;;;;;5011550;28;20610;-78
2022/11/27 04:48:03;;;;;;;10.27;7.07;;;;;;;;;;5011903;28;20208;-78
2022/11/27 04:50:30;;;;;;;13.23;7.33;;;;;;;;;;5030674;23;20218;-82
2022/11/27 04:52:57;;;;;;;7.90;6.83;;;;;;;;;;4988106;28;20204;-82
2022/11/27 04:55:24;;;;;;;10.27;7.63;;;;;;;;;;4988588;28;20231;-82
2022/11/27 04:57:51;;;;;;;7.63;6.83;;;;;;;;;;4980209;28;20217;-82
2022/11/27 05:00:18;;;;;;;7.53;6.27;;;;;;;;;;4990333;28;20242;-82
2022/11/27 05:02:47;;;;;;;9.93;6.57;;;;;;;;;;4992294;28;20211;-82
2022/11/27 05:05:14;;;;;;;8.23;6.17;;;;;;;;;;4991135;28;20587;-82
2022/11/27 05:07:41;;;;;;;10.87;6.70;;;;;;;;;;4990963;28;20215;-83
2022/11/27 05:10:09;;;;;;;10.77;7.70;;;;;;;;;;4990324;28;20204;-82
2022/11/27 05:12:36;;;;;;;14.80;6.83;;;;;;;;;;4991752;28;20223;-82
2022/11/27 05:15:03;;;;;;;8.40;6.63;;;;;;;;;;4991144;28;20219;-82
2022/11/27 05:17:30;;;;;;;9.07;6.70;;;;;;;;;;4991432;28;20222;-82
2022/11/27 05:19:58;;;;;;;9.07;7.00;;;;;;;;;;4979859;28;20241;-82
2022/11/27 05:22:25;;;;;;;8.17;6.33;;;;;;;;;;4991817;28;20228;-82
2022/11/27 05:24:53;;;;;;;10.63;7.07;;;;;;;;;;4990723;28;20219;-82
2022/11/27 05:27:20;;;;;;;10.33;7.27;;;;;;;;;;4991166;28;20215;-82
2022/11/27 05:29:47;;;;;;;15.60;7.00;;;;;;;;;;4990217;28;20219;-82
2022/11/27 05:32:14;;;;;;;22.27;7.30;;;;;;;;;;4987320;28;20260;-82
2022/11/27 05:34:41;;;;;;;22.97;6.60;;;;;;;;;;4992018;28;20211;-83
2022/11/27 05:37:11;;;;;;;16.73;7.40;;;;;;;;;;4987214;28;20235;-83
2022/11/27 05:39:38;;;;;;;12.50;7.93;;;;;;;;;;4987158;28;20224;-82
2022/11/27 05:42:05;;;;;;;20.07;7.27;;;;;;;;;;4994633;28;20240;-82
2022/11/27 05:44:32;;;;;;;21.63;7.97;;;;;;;;;;4992322;28;20215;-82
2022/11/27 05:46:59;;;;;;;20.57;8.83;;;;;;;;;;4985591;28;20238;-82
2022/11/27 05:49:27;;;;;;;25.90;8.27;;;;;;;;;;4995164;28;20212;-82
2022/11/27 05:51:54;;;;;;;23.80;6.63;;;;;;;;;;4975919;28;20248;-82
2022/11/27 05:54:22;;;;;;;11.00;6.80;;;;;;;;;;4995318;28;20215;-82
2022/11/27 05:56:49;;;;;;;22.70;8.57;;;;;;;;;;5000051;28;20231;-83
2022/11/27 05:59:16;;;;;;;22.17;8.57;;;;;;;;;;5014485;28;20230;-82
2022/11/27 06:01:43;;;;;;;20.37;7.67;;;;;;;;;;5014225;28;20242;-83
2022/11/27 06:04:11;;;;;;;26.20;9.00;;;;;;;;;;5012859;28;20206;-82
2022/11/27 06:06:38;;;;;;;18.27;8.27;;;;;;;;;;4993926;28;20249;-82
2022/11/27 06:09:05;;;;;;;15.37;8.07;;;;;;;;;;4994369;28;20226;-82
2022/11/27 06:11:33;;;;;;;22.97;8.73;;;;;;;;;;4991346;28;20243;-82
2022/11/27 06:14:00;;;;;;;15.87;8.73;;;;;;;;;;4987121;28;20219;-82
2022/11/27 06:16:27;;;;;;;19.37;8.53;;;;;;;;;;4981288;28;20243;-83
2022/11/27 06:18:56;;;;;;;16.20;8.37;;;;;;;;;;4992851;28;20212;-82
2022/11/27 06:21:24;;;;;;;23.53;7.93;;;;;;;;;;4974929;28;20250;-83
2022/11/27 06:23:53;;;;;;;24.20;7.67;;;;;;;;;;4979853;28;20212;-83
2022/11/27 06:26:22;;;;;;;9.17;6.90;;;;;;;;;;4987730;28;20224;-82
2022/11/27 06:28:50;;;;;;;14.23;7.27;;;;;;;;;;4992244;28;20275;-83
2022/11/27 06:31:18;;;;;;;14.63;7.90;;;;;;;;;;4994678;28;20245;-83
2022/11/27 06:33:46;;;;;;;27.27;8.17;;;;;;;;;;4983626;28;20216;-83
2022/11/27 06:36:13;;;;;;;24.53;8.20;;;;;;;;;;4975503;28;20568;-82
2022/11/27 06:38:40;;;;;;;14.57;8.00;;;;;;;;;;4983296;28;20212;-83
2022/11/27 06:41:08;;;;;;;9.60;7.80;;;;;;;;;;4993950;28;20258;-82
2022/11/27 06:43:35;;;;;;;11.87;8.03;;;;;;;;;;4986466;28;20218;-82
2022/11/27 06:46:07;;;;;;;12.73;8.93;;;;;;;;;;4978539;28;20733;-82
2022/11/27 06:48:35;;;;;;;13.07;8.80;;;;;;;;;;4990419;28;20302;-82
2022/11/27 06:51:02;;;;;;;12.00;8.50;;;;;;;;;;4993423;28;20239;-82
2022/11/27 06:53:30;;;;;;;14.03;9.50;;;;;;;;;;4994075;28;20204;-82
2022/11/27 06:55:57;;;;;;;9.37;7.53;;;;;;;;;;4975097;28;20247;-83
2022/11/27 06:58:25;;;;;;;11.17;8.30;;;;;;;;;;4980772;28;20671;-82
2022/11/27 07:00:57;;;;;;;9.17;8.07;;;;;;;;;;4983944;28;20813;-82
2022/11/27 07:03:25;;;;;;;9.70;7.43;;;;;;;;;;4993973;28;20207;-81
2022/11/27 07:05:52;;;;;;;10.63;7.57;;;;;;;;;;4993900;28;20242;-81
2022/11/27 07:08:21;;;;;;;10.17;7.57;;;;;;;;;;4987461;28;20211;-80
2022/11/27 07:10:48;;;;;;;10.83;7.90;;;;;;;;;;4993436;28;20247;-80
2022/11/27 07:13:15;;;;;;;10.00;7.97;;;;;;;;;;4993052;28;20226;-81
2022/11/27 07:15:42;;;;;;;9.97;7.97;;;;;;;;;;4993904;28;20235;-80
2022/11/27 07:18:09;;;;;;;12.87;9.07;;;;;;;;;;4994003;28;20207;-80
2022/11/27 07:20:37;;;;;;;12.63;8.97;;;;;;;;;;4993858;28;20241;-80
2022/11/27 07:23:04;;;;;;;20.80;15.40;;;;;;;;;;4994281;28;20207;-80
2022/11/27 07:25:32;;;;;;;11.87;10.50;;;;;;;;;;4989178;28;20235;-81
2022/11/27 07:27:59;;;;;;;14.37;9.33;;;;;;;;;;4974543;28;20628;-81
2022/11/27 07:30:26;;;;;;;10.70;8.50;;;;;;;;;;4987870;28;20228;-81
2022/11/27 07:32:53;;;;;;;11.37;8.07;;;;;;;;;;4991571;28;20366;-81
2022/11/27 07:35:20;;;;;;;10.60;8.17;;;;;;;;;;4988760;28;20241;-81
2022/11/27 07:37:48;;;;;;;9.67;8.23;;;;;;;;;;4988543;28;20219;-81
2022/11/27 07:40:17;;;;;;;12.63;9.77;;;;;;;;;;4991608;28;20239;-81
2022/11/27 07:42:44;;;;;;;14.20;10.67;;;;;;;;;;4993124;28;20215;-81
2022/11/27 07:45:11;;;;;;;15.27;11.03;;;;;;;;;;4992921;28;20720;-81
2022/11/27 07:47:39;;;;;;;16.07;12.90;;;;;;;;;;4992912;28;20223;-81
2022/11/27 07:50:07;;;;;;;19.67;13.17;;;;;;;;;;4992677;28;20199;-80
2022/11/27 07:52:35;;;;;;;15.30;11.90;;;;;;;;;;4992510;28;20734;-81
2022/11/27 07:55:04;;;;;;;14.13;10.30;;;;;;;;;;4991236;28;20211;-82
2022/11/27 07:57:31;;;;;;;14.83;10.50;;;;;;;;;;4991526;28;20203;-81
2022/11/27 07:59:58;;;;;;;18.93;12.30;;;;;;;;;;4991703;28;20221;-80
2022/11/27 08:02:25;;;;;;;19.20;13.30;;;;;;;;;;4992206;28;20237;-81
2022/11/27 08:04:52;;;;;;;23.60;13.83;;;;;;;;;;4992522;28;20655;-83
2022/11/27 08:07:19;;;;;;;19.77;13.53;;;;;;;;;;4993366;28;20214;-81
2022/11/27 08:09:46;;;;;;;20.30;13.53;;;;;;;;;;4993031;28;20211;-81
2022/11/27 08:12:15;;;;;;;22.30;14.33;;;;;;;;;;4992798;28;20241;-81
2022/11/27 08:14:42;;;;;;;24.40;15.20;;;;;;;;;;4993385;28;20208;-81
2022/11/27 08:17:10;;;;;;;17.17;10.97;;;;;;;;;;4993098;28;20242;-81
2022/11/27 08:19:37;;;;;;;16.07;11.17;;;;;;;;;;4993000;28;20302;-81
2022/11/27 08:22:05;;;;;;;17.03;10.33;;;;;;;;;;4992726;28;20257;-81
2022/11/27 08:24:32;;;;;;;15.73;11.33;;;;;;;;;;4992297;28;20212;-81
2022/11/27 08:26:59;;;;;;;16.87;11.27;;;;;;;;;;4992259;28;20234;-81
2022/11/27 08:29:28;;;;;;;17.53;11.13;;;;;;;;;;4992608;28;20199;-82
2022/11/27 08:31:55;;;;;;;17.57;11.73;;;;;;;;;;4992369;28;20675;-81
2022/11/27 08:34:22;;;;;;;17.37;11.47;;;;;;;;;;4992692;28;20674;-79
2022/11/27 08:36:49;;;;;;;18.07;11.63;;;;;;;;;;4992416;28;20246;-80
2022/11/27 08:39:16;;;;;;;20.00;11.83;;;;;;;;;;4992919;28;20222;-80
2022/11/27 08:41:43;;;;;;;26.20;12.27;;;;;;;;;;4991713;28;20243;-80
2022/11/27 08:44:10;;;;;;;23.90;12.70;;;;;;;;;;4992741;28;20231;-80
2022/11/27 08:46:39;;;;;;;23.77;13.33;;;;;;;;;;4992068;28;20243;-81
2022/11/27 08:49:06;;;;;;;28.90;13.20;;;;;;;;;;4989695;28;20713;-81
2022/11/27 08:51:33;;;;;;;27.30;13.57;;;;;;;;;;4991823;28;20240;-81
2022/11/27 08:54:00;;;;;;;36.70;14.23;;;;;;;;;;4992604;28;20214;-81
2022/11/27 08:56:27;;;;;;;30.93;14.07;;;;;;;;;;4991851;28;20282;-82
2022/11/27 08:58:54;;;;;;;35.17;15.03;;;;;;;;;;4992449;28;20219;-81
2022/11/27 09:01:22;;;;;;;39.00;17.10;;;;;;;;;;4991940;28;20248;-81
2022/11/27 09:03:51;;;;;;;42.37;15.73;;;;;;;;;;4992317;28;20208;-81
2022/11/27 09:06:20;;;;;;;44.20;17.13;;;;;;;;;;4984693;28;20229;-81
2022/11/27 09:08:47;;;;;;;42.20;17.80;;;;;;;;;;4987581;28;20840;-81
2022/11/27 09:11:14;;;;;;;44.97;19.00;;;;;;;;;;4991527;28;20243;-81
2022/11/27 09:13:42;;;;;;;47.43;18.67;;;;;;;;;;4991047;28;20229;-81
2022/11/27 09:16:11;;;;;;;45.47;20.23;;;;;;;;;;4991700;28;20239;-81
2022/11/27 09:18:38;;;;;;;43.63;17.93;;;;;;;;;;4990799;28;20208;-81
2022/11/27 09:21:08;;;;;;;49.17;17.43;;;;;;;;;;4991259;28;20240;-81
2022/11/27 09:23:36;;;;;;;46.77;17.77;;;;;;;;;;4991567;28;20696;-81
2022/11/27 09:26:04;;;;;;;36.73;16.17;;;;;;;;;;4991505;28;20242;-81
2022/11/27 09:28:32;;;;;;;31.40;14.70;;;;;;;;;;4991608;28;20215;-81
2022/11/27 09:31:00;;;;;;;40.63;16.63;;;;;;;;;;4991220;28;20236;-81
2022/11/27 09:33:28;;;;;;;36.50;15.60;;;;;;;;;;4991989;28;20204;-81
2022/11/27 09:35:55;;;;;;;39.23;14.43;;;;;;;;;;4991090;28;20734;-81
2022/11/27 09:38:24;;;;;;;45.70;16.73;;;;;;;;;;4991568;28;20211;-82
2022/11/27 09:40:52;;;;;;;39.57;18.33;;;;;;;;;;4991245;28;20246;-81
2022/11/27 09:43:21;;;;;;;43.27;19.67;;;;;;;;;;4991678;28;20703;-81
2022/11/27 09:45:50;;;;;;;50.00;20.77;;;;;;;;;;4991156;28;20239;-81
2022/11/27 09:48:19;;;;;;;41.30;18.07;;;;;;;;;;4991394;28;20207;-81
2022/11/27 09:50:49;;;;;;;44.50;18.97;;;;;;;;;;4990882;28;20244;-81
2022/11/27 09:53:20;;;;;;;37.83;18.67;;;;;;;;;;4991379;28;20204;-82
2022/11/27 09:55:50;;;;;;;39.83;18.37;;;;;;;;;;4991444;28;20232;-83
2022/11/27 09:58:19;;;;;;;41.57;17.40;;;;;;;;;;4991966;28;20695;-82
2022/11/27 10:00:46;;;;;;;34.83;18.87;;;;;;;;;;4990807;28;20228;-83
2022/11/27 10:03:14;;;;;;;33.90;16.80;;;;;;;;;;4990140;28;20215;-83
2022/11/27 10:05:45;;;;;;;36.10;16.97;;;;;;;;;;4989774;28;20734;-83
2022/11/27 10:08:21;;;;;;;36.43;18.23;;;;;;;;;;4991020;28;20669;-81
2022/11/27 10:10:57;;;;;;;33.40;16.60;;;;;;;;;;4990848;28;20265;-81
2022/11/27 10:13:34;;;;;;;34.77;16.97;;;;;;;;;;4989530;28;20223;-81
2022/11/27 10:16:03;;;;;;;30.33;14.87;;;;;;;;;;4983250;28;20265;-83
2022/11/27 10:18:33;;;;;;;33.37;16.37;;;;;;;;;;4991878;28;20215;-83
2022/11/27 10:21:03;;;;;;;32.30;15.57;;;;;;;;;;4993733;28;20364;-84
2022/11/27 10:23:37;;;;;;;32.93;16.63;;;;;;;;;;4994714;28;20212;-83
2022/11/27 10:26:08;;;;;;;33.20;15.67;;;;;;;;;;4994596;28;20242;-82
2022/11/27 10:28:37;;;;;;;28.33;15.33;;;;;;;;;;4994978;28;20215;-82
2022/11/27 10:31:10;;;;;;;33.03;15.30;;;;;;;;;;4993606;28;20770;-82
2022/11/27 10:33:39;;;;;;;33.77;15.40;;;;;;;;;;4994572;28;20210;-82
2022/11/27 10:36:06;;;;;;;30.07;14.83;;;;;;;;;;4989131;28;20231;-82
2022/11/27 10:38:36;;;;;;;27.37;15.40;;;;;;;;;;4974711;28;20696;-82
2022/11/27 10:41:09;;;;;;;28.20;14.70;;;;;;;;;;4974788;28;20240;-82
2022/11/27 10:43:38;;;;;;;27.70;14.40;;;;;;;;;;4975352;28;20580;-83
2022/11/27 10:46:09;;;;;;;26.33;15.13;;;;;;;;;;4974804;28;20245;-82
2022/11/27 10:48:36;;;;;;;30.10;14.87;;;;;;;;;;4974541;28;20215;-82
2022/11/27 10:51:03;;;;;;;24.67;14.10;;;;;;;;;;4987086;28;20739;-83
2022/11/27 10:53:32;;;;;;;29.77;13.70;;;;;;;;;;4994324;28;20217;-82
2022/11/27 10:56:06;;;;;;;22.67;13.87;;;;;;;;;;4991098;28;20232;-83
2022/11/27 10:58:34;;;;;;;25.23;14.07;;;;;;;;;;4996916;28;20303;-83
2022/11/27 11:01:04;;;;;;;22.93;13.63;;;;;;;;;;4995775;28;20266;-81
2022/11/27 11:03:32;;;;;;;19.87;13.50;;;;;;;;;;4998867;28;20309;-86
2022/11/27 11:06:01;;;;;;;26.20;12.93;;;;;;;;;;4996272;28;20339;-81
2022/11/27 11:08:29;;;;;;;25.03;13.30;;;;;;;;;;4997326;28;20208;-84
2022/11/27 11:10:59;;;;;;;21.10;13.80;;;;;;;;;;4993328;28;20249;-77
2022/11/27 11:13:27;;;;;;;21.00;12.50;;;;;;;;;;4993081;28;20219;-79
2022/11/27 11:15:56;;;;;;;27.83;12.27;;;;;;;;;;4992317;28;20716;-79
2022/11/27 11:18:26;;;;;;;21.37;11.43;;;;;;;;;;4992542;28;20636;-78
2022/11/27 11:20:54;;;;;;;15.53;10.67;;;;;;;;;;4993247;28;20279;-79
2022/11/27 11:23:22;;;;;;;16.67;10.23;;;;;;;;;;4990089;28;20208;-78
2022/11/27 11:25:51;;;;;;;11.97;9.33;;;;;;;;;;4992800;28;20228;-80
2022/11/27 11:28:19;;;;;;;14.07;9.33;;;;;;;;;;4993791;28;20567;-81
2022/11/27 11:30:53;;;;;;;12.50;7.80;;;;;;;;;;4993255;28;20244;-81
2022/11/27 11:33:20;;;;;;;7.07;6.33;;;;;;;;;;4989941;28;20564;-80
2022/11/27 11:35:53;;;;;;;10.10;6.93;;;;;;;;;;4991067;28;20240;-79
2022/11/27 11:38:23;;;;;;;10.30;5.50;;;;;;;;;;4993046;28;20204;-81
2022/11/27 11:40:58;;;;;;;7.63;5.40;;;;;;;;;;4992615;28;20723;-82
2022/11/27 11:43:26;;;;;;;6.90;4.80;;;;;;;;;;4991808;28;20211;-82
2022/11/27 11:45:55;;;;;;;6.90;4.90;;;;;;;;;;4992464;28;20235;-85
2022/11/27 11:48:24;;;;;;;5.47;4.27;;;;;;;;;;4997013;28;20214;-93
2022/11/27 11:50:55;;;;;;;4.60;4.20;;;;;;;;;;4995580;28;20243;-87
2022/11/27 11:53:25;;;;;;;6.07;4.13;;;;;;;;;;4991152;28;20212;-84
2022/11/27 11:55:57;;;;;;;9.93;4.73;;;;;;;;;;4992017;28;20564;-84
2022/11/27 11:58:32;;;;;;;7.70;4.23;;;;;;;;;;4993091;28;20189;-81
2022/11/27 12:01:03;;;;;;;4.37;3.67;;;;;;;;;;4993647;28;20730;-85
2022/11/27 12:03:36;;;;;;;4.10;3.60;;;;;;;;;;4991401;28;20215;-82
2022/11/27 12:06:18;;;;;;;3.80;3.50;;;;;;;;;;4973518;28;20247;-84
2022/11/27 12:08:57;;;;;;;4.77;3.80;;;;;;;;;;4990305;28;20298;-81
2022/11/27 12:11:25;;;;;;;4.10;3.70;;;;;;;;;;4992000;28;20799;-88
2022/11/27 12:13:58;;;;;;;4.47;3.87;;;;;;;;;;4992703;28;20473;-85
2022/11/27 12:16:29;;;;;;;4.37;3.87;;;;;;;;;;4991769;28;20287;-80
2022/11/27 12:19:03;;;;;;;5.70;3.60;;;;;;;;;;4991169;28;20204;-87
2022/11/27 12:21:36;;;;;;;4.43;3.40;;;;;;;;;;4980527;28;20231;-86
2022/11/27 12:24:11;;;;;;;4.30;3.23;;;;;;;;;;4996095;28;20710;-84
2022/11/27 12:26:43;;;;;;;4.67;3.70;;;;;;;;;;4992347;28;20239;-85
2022/11/27 12:29:21;;;;;;;4.73;3.60;;;;;;;;;;4992503;28;20648;-85
2022/11/27 12:31:56;;;;;;;4.53;3.67;;;;;;;;;;4992105;28;20235;-85
2022/11/27 12:34:28;;;;;;;4.13;3.37;;;;;;;;;;4979283;28;20220;-85
2022/11/27 12:37:02;;;;;;;5.20;3.47;;;;;;;;;;4971957;28;20283;-84
2022/11/27 12:39:33;;;;;;;3.87;3.43;;;;;;;;;;4989193;28;20214;-85
2022/11/27 12:42:03;;;;;;;4.10;3.60;;;;;;;;;;4991515;28;20339;-86
2022/11/27 12:44:35;;;;;;;4.40;3.67;;;;;;;;;;4986367;28;20208;-90
2022/11/27 12:47:05;;;;;;;3.80;3.50;;;;;;;;;;4992915;28;20247;-91
2022/11/27 12:49:35;;;;;;;3.83;2.83;;;;;;;;;;4992104;28;20711;-92
2022/11/27 12:52:09;;;;;;;3.73;3.20;;;;;;;;;;4992910;28;20270;-92
2022/11/27 12:54:41;;;;;;;3.07;2.77;;;;;;;;;;4982794;28;20575;-81
2022/11/27 12:57:12;;;;;;;4.33;3.20;;;;;;;;;;4972426;28;20236;-82
2022/11/27 12:59:43;;;;;;;4.53;3.27;;;;;;;;;;4972193;28;20216;-82
2022/11/27 13:02:19;;;;;;;3.63;3.33;;;;;;;;;;4987298;28;20306;-81
2022/11/27 13:04:48;;;;;;;3.53;3.20;;;;;;;;;;4991700;28;20212;-83
2022/11/27 13:07:17;;;;;;;4.90;3.60;;;;;;;;;;4991049;28;20240;-82
2022/11/27 13:09:51;;;;;;;3.87;3.30;;;;;;;;;;4991174;28;20204;-82
2022/11/27 13:12:22;;;;;;;4.97;3.83;;;;;;;;;;4991130;28;20224;-81
2022/11/27 13:14:52;;;;;;;4.07;3.20;;;;;;;;;;4991955;28;20189;-81
2022/11/27 13:17:19;;;;;;;3.80;3.30;;;;;;;;;;4991641;28;20715;-82
2022/11/27 13:19:48;;;;;;;3.30;3.00;;;;;;;;;;4991447;28;20216;-81
2022/11/27 13:22:18;;;;;;;4.23;3.40;;;;;;;;;;4989278;28;20228;-80
2022/11/27 13:24:46;;;;;;;3.63;3.33;;;;;;;;;;4982289;28;20196;-81
2022/11/27 13:27:16;;;;;;;3.83;3.33;;;;;;;;;;4991639;28;20242;-82
2022/11/27 13:29:44;;;;;;;5.50;3.43;;;;;;;;;;4991587;28;20216;-82
2022/11/27 13:32:17;;;;;;;3.93;3.53;;;;;;;;;;4991298;28;20681;-85
2022/11/27 13:34:45;;;;;;;5.30;3.60;;;;;;;;;;4992420;28;20201;-82
2022/11/27 13:37:24;;;;;;;3.77;3.40;;;;;;;;;;4975596;28;20228;-91
2022/11/27 13:39:59;;;;;;;3.33;3.00;;;;;;;;;;4972953;28;20248;-84
2022/11/27 13:42:27;;;;;;;3.70;3.00;;;;;;;;;;4972686;28;20243;-81
2022/11/27 13:44:56;;;;;;;3.40;3.10;;;;;;;;;;4986951;28;20295;-84
2022/11/27 13:47:24;;;;;;;3.03;2.80;;;;;;;;;;4992239;28;20219;-83
2022/11/27 13:49:59;;;;;;;5.80;3.40;;;;;;;;;;4992012;28;20204;-84
2022/11/27 13:52:26;;;;;;;5.37;3.53;;;;;;;;;;4991702;28;20242;-85
2022/11/27 13:54:56;;;;;;;3.80;3.50;;;;;;;;;;4985978;28;20204;-83
2022/11/27 13:57:23;;;;;;;3.50;3.20;;;;;;;;;;4995012;28;20208;-83
2022/11/27 14:00:00;;;;;;;5.10;3.60;;;;;;;;;;4995746;28;20200;-85
2022/11/27 14:02:39;;;;;;;4.97;4.43;;;;;;;;;;4992426;28;20355;-85
2022/11/27 14:05:07;;;;;;;4.60;4.10;;;;;;;;;;4988206;28;20191;-84
2022/11/27 14:07:36;;;;;;;5.30;3.70;;;;;;;;;;4995174;28;20215;-83
2022/11/27 14:10:09;;;;;;;3.60;3.20;;;;;;;;;;4995127;28;20196;-84
2022/11/27 14:12:37;;;;;;;4.60;3.40;;;;;;;;;;4995376;28;20283;-85
2022/11/27 14:15:07;;;;;;;5.43;4.10;;;;;;;;;;4996981;28;20294;-84
2022/11/27 14:17:35;;;;;;;4.30;3.70;;;;;;;;;;4995441;28;20212;-83
2022/11/27 14:20:05;;;;;;;4.60;4.10;;;;;;;;;;4994856;28;20204;-82
2022/11/27 14:22:35;;;;;;;4.70;4.30;;;;;;;;;;4995330;28;20243;-85
2022/11/27 14:25:03;;;;;;;5.70;4.20;;;;;;;;;;4996921;28;20198;-85
2022/11/27 14:27:36;;;;;;;6.03;3.90;;;;;;;;;;4995841;28;20204;-85
2022/11/27 14:30:14;;;;;;;5.20;4.50;;;;;;;;;;4995342;28;20193;-89
2022/11/27 14:32:42;;;;;;;10.17;4.57;;;;;;;;;;4996015;28;20192;-86
2022/11/27 14:35:19;;;;;;;4.47;4.07;;;;;;;;;;4995511;28;20215;-84
2022/11/27 14:37:46;;;;;;;4.73;3.87;;;;;;;;;;4995410;28;20294;-85
2022/11/27 14:40:14;;;;;;;4.63;4.07;;;;;;;;;;4995308;28;20243;-85